Time;durP1;ratioP1;P1;durP2;ratioP2;P2;SDS_P1;SDS_P2;PMS_P1;PMS_P2;Temp;Humidity;BMP_temperature;BMP_pressure;BME280_temperature;BME280_humidity;BME280_pressure;Samples;Min_cycle;Max_cycle;Signal;HPM_P1;HPM_P2
2023/07/07 00:01:12;;;;;;;5.43;4.93;;;;;;;;;;5036772;28;20532;-82
2023/07/07 00:03:38;;;;;;;6.60;5.27;;;;;;;;;;5040281;28;20482;-82
2023/07/07 00:06:05;;;;;;;8.60;5.00;;;;;;;;;;5037728;28;20497;-82
2023/07/07 00:08:33;;;;;;;5.07;4.60;;;;;;;;;;5030970;28;20508;-82
2023/07/07 00:11:00;;;;;;;6.03;5.30;;;;;;;;;;5051385;28;20454;-83
2023/07/07 00:13:26;;;;;;;5.30;4.80;;;;;;;;;;5040855;28;20926;-81
2023/07/07 00:15:58;;;;;;;5.90;5.20;;;;;;;;;;5041283;28;20599;-82
2023/07/07 00:18:27;;;;;;;5.93;5.37;;;;;;;;;;5036561;28;20525;-81
2023/07/07 00:20:53;;;;;;;7.70;5.03;;;;;;;;;;5036453;28;20488;-82
2023/07/07 00:23:20;;;;;;;5.90;5.07;;;;;;;;;;5035512;28;20481;-80
2023/07/07 00:25:56;;;;;;;5.60;5.00;;;;;;;;;;5036724;28;20877;-81
2023/07/07 00:28:23;;;;;;;5.30;4.80;;;;;;;;;;5036964;28;20458;-81
2023/07/07 00:30:49;;;;;;;6.17;5.57;;;;;;;;;;5039314;28;20510;-80
2023/07/07 00:33:16;;;;;;;6.67;5.90;;;;;;;;;;5038764;28;20488;-81
2023/07/07 00:35:45;;;;;;;6.50;5.80;;;;;;;;;;5038568;28;20465;-80
2023/07/07 00:38:11;;;;;;;5.90;5.30;;;;;;;;;;5038487;28;20481;-81
2023/07/07 00:40:38;;;;;;;6.60;6.00;;;;;;;;;;5036612;28;20501;-81
2023/07/07 00:43:10;;;;;;;5.83;5.10;;;;;;;;;;5039311;28;20532;-82
2023/07/07 00:45:36;;;;;;;5.40;4.60;;;;;;;;;;5038011;28;20554;-82
2023/07/07 00:48:05;;;;;;;6.37;5.33;;;;;;;;;;5035830;28;20524;-81
2023/07/07 00:50:33;;;;;;;5.40;4.90;;;;;;;;;;5037612;28;20517;-81
2023/07/07 00:52:59;;;;;;;6.17;4.70;;;;;;;;;;5039797;28;20474;-80
2023/07/07 00:55:28;;;;;;;5.53;4.70;;;;;;;;;;5038914;28;20533;-81
2023/07/07 00:57:54;;;;;;;6.00;5.40;;;;;;;;;;5038282;28;20490;-80
2023/07/07 01:00:23;;;;;;;8.60;5.37;;;;;;;;;;5037032;28;20541;-81
2023/07/07 01:02:52;;;;;;;9.00;5.47;;;;;;;;;;5029978;28;20496;-81
2023/07/07 01:05:19;;;;;;;6.17;5.57;;;;;;;;;;5038546;28;20469;-80
2023/07/07 01:07:51;;;;;;;5.60;5.10;;;;;;;;;;5036711;28;20521;-81
2023/07/07 01:10:18;;;;;;;7.73;5.80;;;;;;;;;;5040139;28;20488;-81
2023/07/07 01:12:46;;;;;;;6.70;6.00;;;;;;;;;;5040268;28;20454;-81
2023/07/07 01:15:13;;;;;;;7.73;5.83;;;;;;;;;;5041728;28;20494;-81
2023/07/07 01:17:45;;;;;;;6.40;5.90;;;;;;;;;;5040205;28;20485;-81
2023/07/07 01:20:21;;;;;;;9.87;5.70;;;;;;;;;;5039795;28;20547;-80
2023/07/07 01:23:11;;;;;;;8.57;5.60;;;;;;;;;;5040186;28;20437;-81
2023/07/07 01:25:45;;;;;;;5.97;5.30;;;;;;;;;;5024444;28;20457;-81
2023/07/07 01:28:25;;;;;;;6.83;5.97;;;;;;;;;;5037036;28;20944;-82
2023/07/07 01:30:53;;;;;;;6.13;5.60;;;;;;;;;;5039840;28;20480;-81
2023/07/07 01:33:23;;;;;;;6.23;5.20;;;;;;;;;;5039889;28;20517;-82
2023/07/07 01:35:49;;;;;;;5.83;5.33;;;;;;;;;;5039175;28;20470;-82
2023/07/07 01:38:33;;;;;;;6.97;6.20;;;;;;;;;;5040123;28;20478;-82
2023/07/07 01:41:03;;;;;;;6.47;5.87;;;;;;;;;;5038331;28;20500;-82
2023/07/07 01:43:33;;;;;;;6.70;6.00;;;;;;;;;;5039960;28;20457;-82
2023/07/07 01:46:05;;;;;;;6.33;5.70;;;;;;;;;;5040081;28;20468;-81
2023/07/07 01:48:36;;;;;;;6.67;6.00;;;;;;;;;;5043402;28;20461;-81
2023/07/07 01:51:04;;;;;;;7.20;6.60;;;;;;;;;;5043172;28;20896;-81
2023/07/07 01:53:31;;;;;;;7.00;6.30;;;;;;;;;;5043244;28;20573;-82
2023/07/07 01:56:01;;;;;;;8.40;6.03;;;;;;;;;;5043467;28;20521;-82
2023/07/07 01:58:29;;;;;;;6.30;5.80;;;;;;;;;;5043478;28;20449;-82
2023/07/07 02:00:57;;;;;;;6.30;5.80;;;;;;;;;;5043531;28;20569;-81
2023/07/07 02:03:25;;;;;;;6.27;5.77;;;;;;;;;;5043321;28;20488;-82
2023/07/07 02:05:51;;;;;;;7.03;6.30;;;;;;;;;;5042642;28;20521;-82
2023/07/07 02:08:17;;;;;;;6.77;6.17;;;;;;;;;;5040851;28;20520;-81
2023/07/07 02:10:44;;;;;;;6.10;5.50;;;;;;;;;;5051082;28;20519;-82
2023/07/07 02:13:11;;;;;;;7.33;6.10;;;;;;;;;;5043730;28;20588;-81
2023/07/07 02:15:37;;;;;;;10.67;6.00;;;;;;;;;;5043374;28;20553;-81
2023/07/07 02:18:04;;;;;;;6.57;5.73;;;;;;;;;;5042650;28;20537;-81
2023/07/07 02:20:32;;;;;;;6.77;6.17;;;;;;;;;;5042385;28;20524;-81
2023/07/07 02:22:59;;;;;;;6.73;5.47;;;;;;;;;;5042985;28;20454;-81
2023/07/07 02:25:25;;;;;;;7.27;6.47;;;;;;;;;;5043157;28;20485;-81
2023/07/07 02:27:51;;;;;;;7.10;6.40;;;;;;;;;;5041909;28;20512;-82
2023/07/07 02:30:18;;;;;;;8.40;7.30;;;;;;;;;;5042963;28;20544;-82
2023/07/07 02:32:44;;;;;;;8.00;7.10;;;;;;;;;;5042667;28;20481;-82
2023/07/07 02:35:11;;;;;;;7.60;7.00;;;;;;;;;;5042117;28;20526;-82
2023/07/07 02:37:39;;;;;;;8.17;7.37;;;;;;;;;;5039993;28;20938;-82
2023/07/07 02:40:06;;;;;;;10.40;6.73;;;;;;;;;;5042921;28;20473;-81
2023/07/07 02:42:33;;;;;;;9.73;6.30;;;;;;;;;;5039665;28;20493;-80
2023/07/07 02:44:59;;;;;;;7.60;6.87;;;;;;;;;;5042422;28;20525;-80
2023/07/07 02:47:25;;;;;;;8.83;6.40;;;;;;;;;;5042687;28;20518;-80
2023/07/07 02:49:52;;;;;;;12.03;8.03;;;;;;;;;;5041979;28;20592;-80
2023/07/07 02:52:18;;;;;;;11.47;7.63;;;;;;;;;;5042420;28;20927;-82
2023/07/07 02:54:46;;;;;;;8.10;7.17;;;;;;;;;;5042617;28;20533;-81
2023/07/07 02:57:13;;;;;;;7.70;7.00;;;;;;;;;;5041489;28;20911;-81
2023/07/07 02:59:39;;;;;;;8.40;6.50;;;;;;;;;;5042262;28;20526;-81
2023/07/07 03:02:06;;;;;;;7.40;6.70;;;;;;;;;;5041857;28;20485;-80
2023/07/07 03:04:32;;;;;;;8.30;7.10;;;;;;;;;;5041992;28;20476;-81
2023/07/07 03:06:59;;;;;;;6.70;6.10;;;;;;;;;;5039322;28;20538;-81
2023/07/07 03:09:25;;;;;;;9.33;8.53;;;;;;;;;;5042412;28;20490;-81
2023/07/07 03:11:53;;;;;;;6.97;6.27;;;;;;;;;;5041811;28;20966;-81
2023/07/07 03:14:20;;;;;;;7.23;6.20;;;;;;;;;;5036846;28;20528;-81
2023/07/07 03:16:51;;;;;;;10.80;6.67;;;;;;;;;;5040620;28;20481;-81
2023/07/07 03:19:18;;;;;;;9.37;7.30;;;;;;;;;;5035180;28;20490;-82
2023/07/07 03:21:44;;;;;;;7.90;7.20;;;;;;;;;;5040417;28;20532;-83
2023/07/07 03:24:11;;;;;;;6.73;6.03;;;;;;;;;;5037343;28;21108;-82
2023/07/07 03:26:37;;;;;;;6.90;6.20;;;;;;;;;;5036856;28;20514;-82
2023/07/07 03:29:05;;;;;;;6.50;5.90;;;;;;;;;;5041378;28;20481;-81
2023/07/07 03:31:32;;;;;;;9.33;6.40;;;;;;;;;;5042140;28;20501;-83
2023/07/07 03:34:00;;;;;;;8.13;6.87;;;;;;;;;;5041362;28;20485;-82
2023/07/07 03:36:28;;;;;;;8.30;6.93;;;;;;;;;;5040798;28;20468;-82
2023/07/07 03:38:55;;;;;;;8.37;6.53;;;;;;;;;;5041485;28;20488;-82
2023/07/07 03:41:23;;;;;;;6.30;5.80;;;;;;;;;;5041248;28;20496;-80
2023/07/07 03:43:49;;;;;;;7.37;6.37;;;;;;;;;;5041988;28;20489;-82
2023/07/07 03:46:18;;;;;;;6.40;5.80;;;;;;;;;;5041263;28;20522;-82
2023/07/07 03:48:45;;;;;;;7.60;5.93;;;;;;;;;;5041238;28;20545;-81
2023/07/07 03:51:12;;;;;;;6.13;5.47;;;;;;;;;;5040838;28;20608;-82
2023/07/07 03:53:39;;;;;;;5.80;5.10;;;;;;;;;;5031895;28;20477;-81
2023/07/07 03:56:06;;;;;;;6.80;4.43;;;;;;;;;;5039240;28;20485;-81
2023/07/07 03:58:32;;;;;;;4.90;3.90;;;;;;;;;;5038376;28;20476;-82
2023/07/07 04:01:00;;;;;;;5.03;3.97;;;;;;;;;;5038351;28;20505;-82
2023/07/07 04:03:28;;;;;;;6.90;3.50;;;;;;;;;;5036305;28;20485;-81
2023/07/07 04:05:55;;;;;;;3.67;3.33;;;;;;;;;;5040058;28;20545;-81
2023/07/07 04:08:23;;;;;;;5.60;4.20;;;;;;;;;;5034577;28;21062;-82
2023/07/07 04:10:58;;;;;;;4.10;3.40;;;;;;;;;;5036082;28;20933;-81
2023/07/07 04:13:24;;;;;;;7.10;4.00;;;;;;;;;;5037700;28;20481;-82
2023/07/07 04:15:57;;;;;;;5.27;4.37;;;;;;;;;;5034610;28;20454;-83
2023/07/07 04:18:23;;;;;;;4.67;4.10;;;;;;;;;;5047682;28;20484;-83
2023/07/07 04:20:51;;;;;;;6.30;3.90;;;;;;;;;;5037556;28;20584;-82
2023/07/07 04:23:17;;;;;;;4.20;3.80;;;;;;;;;;5040690;28;20476;-82
2023/07/07 04:25:44;;;;;;;6.30;3.50;;;;;;;;;;5038894;28;20514;-82
2023/07/07 04:28:11;;;;;;;3.50;3.20;;;;;;;;;;5036440;28;20461;-82
2023/07/07 04:30:37;;;;;;;8.27;3.40;;;;;;;;;;5037132;28;20723;-83
2023/07/07 04:33:04;;;;;;;3.90;2.87;;;;;;;;;;5039724;28;20481;-79
2023/07/07 04:35:31;;;;;;;3.87;2.90;;;;;;;;;;5038863;28;20492;-76
2023/07/07 04:37:58;;;;;;;5.23;2.90;;;;;;;;;;5039968;28;20545;-75
2023/07/07 04:40:25;;;;;;;4.20;3.10;;;;;;;;;;5038289;28;20454;-75
2023/07/07 04:42:51;;;;;;;4.73;3.53;;;;;;;;;;5035338;28;20505;-74
2023/07/07 04:45:18;;;;;;;4.40;3.20;;;;;;;;;;5039167;28;20532;-76
2023/07/07 04:47:44;;;;;;;5.27;3.97;;;;;;;;;;5028067;28;20509;-75
2023/07/07 04:50:11;;;;;;;7.47;4.27;;;;;;;;;;5037227;28;20865;-75
2023/07/07 04:52:39;;;;;;;4.80;3.20;;;;;;;;;;5039264;28;20477;-75
2023/07/07 04:55:07;;;;;;;4.53;3.70;;;;;;;;;;5040068;28;20930;-76
2023/07/07 04:57:33;;;;;;;5.13;3.43;;;;;;;;;;5039793;28;20493;-76
2023/07/07 05:00:00;;;;;;;3.70;3.10;;;;;;;;;;5040057;28;20497;-75
2023/07/07 05:02:26;;;;;;;5.20;3.63;;;;;;;;;;5038681;28;20505;-76
2023/07/07 05:04:52;;;;;;;8.30;3.30;;;;;;;;;;5038817;28;20568;-76
2023/07/07 05:07:19;;;;;;;5.50;3.20;;;;;;;;;;5033741;28;20533;-76
2023/07/07 05:09:45;;;;;;;3.73;3.13;;;;;;;;;;5034968;28;20873;-75
2023/07/07 05:12:14;;;;;;;4.43;2.90;;;;;;;;;;5029921;28;20470;-76
2023/07/07 05:14:40;;;;;;;5.03;3.10;;;;;;;;;;5036884;28;20445;-76
2023/07/07 05:17:06;;;;;;;9.10;3.90;;;;;;;;;;5038099;28;20488;-76
2023/07/07 05:19:33;;;;;;;4.97;3.07;;;;;;;;;;5035495;28;20485;-76
2023/07/07 05:21:59;;;;;;;4.20;3.47;;;;;;;;;;5042654;28;20509;-77
2023/07/07 05:24:25;;;;;;;5.00;3.40;;;;;;;;;;5037447;28;20442;-78
2023/07/07 05:26:52;;;;;;;3.20;2.70;;;;;;;;;;5042812;28;20489;-77
2023/07/07 05:29:21;;;;;;;4.57;2.93;;;;;;;;;;5042229;28;20521;-78
2023/07/07 05:31:47;;;;;;;4.50;3.00;;;;;;;;;;5041529;28;20516;-78
2023/07/07 05:34:24;;;;;;;5.83;3.57;;;;;;;;;;5034843;28;20489;-77
2023/07/07 05:36:51;;;;;;;6.43;3.40;;;;;;;;;;5032395;28;20492;-79
2023/07/07 05:39:17;;;;;;;8.83;2.90;;;;;;;;;;5042820;28;20472;-78
2023/07/07 05:41:44;;;;;;;3.00;2.70;;;;;;;;;;5041968;28;20489;-78
2023/07/07 05:44:11;;;;;;;7.77;3.30;;;;;;;;;;5042536;28;20606;-77
2023/07/07 05:46:39;;;;;;;6.20;2.80;;;;;;;;;;5042167;28;20453;-77
2023/07/07 05:49:05;;;;;;;4.10;2.70;;;;;;;;;;5038240;28;20469;-80
2023/07/07 05:51:31;;;;;;;6.53;2.90;;;;;;;;;;5041857;28;20479;-81
2023/07/07 05:53:58;;;;;;;4.77;2.60;;;;;;;;;;5042815;28;20517;-78
2023/07/07 05:56:25;;;;;;;8.07;2.50;;;;;;;;;;5041732;28;20500;-78
2023/07/07 05:58:53;;;;;;;4.67;2.90;;;;;;;;;;5037151;28;20460;-79
2023/07/07 06:01:19;;;;;;;5.37;3.27;;;;;;;;;;5041841;28;20485;-79
2023/07/07 06:03:48;;;;;;;4.57;2.40;;;;;;;;;;5042206;28;20544;-80
2023/07/07 06:06:14;;;;;;;6.43;3.10;;;;;;;;;;5041808;28;21041;-79
2023/07/07 06:08:41;;;;;;;4.13;2.60;;;;;;;;;;5041870;28;20551;-79
2023/07/07 06:11:08;;;;;;;5.73;3.50;;;;;;;;;;5041737;28;20545;-79
2023/07/07 06:13:34;;;;;;;5.20;2.83;;;;;;;;;;5042053;28;20469;-80
2023/07/07 06:16:01;;;;;;;5.27;3.00;;;;;;;;;;5041941;28;20517;-79
2023/07/07 06:18:27;;;;;;;5.73;2.73;;;;;;;;;;5041392;28;20485;-81
2023/07/07 06:20:55;;;;;;;4.63;2.73;;;;;;;;;;5041274;28;20454;-80
2023/07/07 06:23:22;;;;;;;4.80;3.23;;;;;;;;;;5038949;28;20535;-82
2023/07/07 06:25:49;;;;;;;3.40;2.80;;;;;;;;;;5042105;28;20575;-81
2023/07/07 06:28:15;;;;;;;4.53;2.60;;;;;;;;;;5039945;28;20578;-82
2023/07/07 06:30:42;;;;;;;5.63;2.73;;;;;;;;;;5039972;28;20442;-82
2023/07/07 06:33:08;;;;;;;5.13;2.57;;;;;;;;;;5036988;28;20545;-80
2023/07/07 06:35:35;;;;;;;4.10;2.40;;;;;;;;;;5039351;28;20504;-81
2023/07/07 06:38:03;;;;;;;3.20;2.30;;;;;;;;;;5041993;28;20486;-80
2023/07/07 06:40:29;;;;;;;7.17;2.40;;;;;;;;;;5035948;28;20509;-80
2023/07/07 06:42:56;;;;;;;3.40;2.10;;;;;;;;;;5040610;28;20600;-79
2023/07/07 06:45:22;;;;;;;4.70;2.07;;;;;;;;;;5041018;28;20458;-78
2023/07/07 06:47:49;;;;;;;4.87;2.20;;;;;;;;;;5031979;28;20502;-80
2023/07/07 06:50:17;;;;;;;9.23;2.63;;;;;;;;;;5036543;28;20524;-80
2023/07/07 06:52:43;;;;;;;4.43;2.07;;;;;;;;;;5042586;28;20457;-81
2023/07/07 06:55:11;;;;;;;3.00;2.03;;;;;;;;;;5042253;28;20462;-80
2023/07/07 06:57:38;;;;;;;3.93;2.20;;;;;;;;;;5041838;28;20540;-80
2023/07/07 07:00:05;;;;;;;4.20;2.00;;;;;;;;;;5042398;28;20478;-81
2023/07/07 07:02:31;;;;;;;4.10;2.00;;;;;;;;;;5041985;28;20509;-80
2023/07/07 07:04:57;;;;;;;3.47;2.03;;;;;;;;;;5041203;28;20552;-80
2023/07/07 07:07:24;;;;;;;3.50;2.23;;;;;;;;;;5042071;28;20923;-80
2023/07/07 07:09:50;;;;;;;3.00;2.30;;;;;;;;;;5041776;28;20485;-81
2023/07/07 07:12:18;;;;;;;8.40;1.93;;;;;;;;;;5041321;28;20505;-80
2023/07/07 07:14:44;;;;;;;3.30;2.13;;;;;;;;;;5042311;28;20477;-80
2023/07/07 07:17:10;;;;;;;5.43;2.10;;;;;;;;;;5042213;28;20457;-81
2023/07/07 07:19:37;;;;;;;3.33;1.97;;;;;;;;;;5041326;28;20599;-80
2023/07/07 07:22:04;;;;;;;2.30;1.73;;;;;;;;;;5041582;28;20516;-80
2023/07/07 07:24:30;;;;;;;3.63;1.90;;;;;;;;;;5041753;28;20529;-81
2023/07/07 07:26:56;;;;;;;2.37;1.60;;;;;;;;;;5034436;28;20481;-80
2023/07/07 07:29:24;;;;;;;4.00;2.00;;;;;;;;;;5040136;28;20520;-80
2023/07/07 07:31:51;;;;;;;3.73;2.40;;;;;;;;;;5038894;28;20521;-81
2023/07/07 07:34:23;;;;;;;5.30;2.40;;;;;;;;;;5040172;28;20473;-79
2023/07/07 07:36:49;;;;;;;5.60;1.70;;;;;;;;;;5039036;28;20472;-79
2023/07/07 07:39:16;;;;;;;4.03;2.30;;;;;;;;;;5039085;28;20485;-80
2023/07/07 07:41:43;;;;;;;2.80;1.77;;;;;;;;;;5030898;28;20979;-80
2023/07/07 07:44:10;;;;;;;4.13;1.90;;;;;;;;;;5041307;28;20525;-79
2023/07/07 07:46:37;;;;;;;3.50;1.87;;;;;;;;;;5041481;28;20489;-80
2023/07/07 07:49:04;;;;;;;3.23;1.73;;;;;;;;;;5040597;28;20476;-80
2023/07/07 07:51:30;;;;;;;3.20;1.80;;;;;;;;;;5040665;28;20561;-80
2023/07/07 07:53:57;;;;;;;3.20;1.80;;;;;;;;;;5041323;28;20522;-80
2023/07/07 07:56:23;;;;;;;2.67;1.70;;;;;;;;;;5040903;28;20494;-80
2023/07/07 07:58:50;;;;;;;3.13;1.80;;;;;;;;;;5040861;28;20472;-80
2023/07/07 08:01:16;;;;;;;3.30;1.73;;;;;;;;;;5041215;28;20454;-79
2023/07/07 08:03:44;;;;;;;1.80;1.60;;;;;;;;;;5041395;28;20494;-80
2023/07/07 08:06:10;;;;;;;3.47;1.87;;;;;;;;;;5041416;28;20474;-81
2023/07/07 08:08:37;;;;;;;3.03;1.63;;;;;;;;;;5041387;28;20516;-80
2023/07/07 08:11:03;;;;;;;5.17;2.07;;;;;;;;;;5035576;28;20454;-80
2023/07/07 08:13:30;;;;;;;3.13;2.20;;;;;;;;;;5041733;28;20454;-79
2023/07/07 08:15:56;;;;;;;2.20;1.40;;;;;;;;;;5041599;28;20537;-80
2023/07/07 08:18:23;;;;;;;2.57;1.37;;;;;;;;;;5040698;28;20453;-80
2023/07/07 08:20:50;;;;;;;2.90;1.70;;;;;;;;;;5041651;28;20481;-80
2023/07/07 08:23:18;;;;;;;2.70;1.70;;;;;;;;;;5041604;28;20482;-79
2023/07/07 08:25:45;;;;;;;5.83;2.00;;;;;;;;;;5040738;28;20496;-79
2023/07/07 08:28:12;;;;;;;4.50;1.67;;;;;;;;;;5041435;28;20458;-80
2023/07/07 08:30:38;;;;;;;4.77;1.80;;;;;;;;;;5041619;28;20462;-79
2023/07/07 08:33:05;;;;;;;2.57;1.60;;;;;;;;;;5040634;28;20545;-80
2023/07/07 08:35:31;;;;;;;1.83;1.60;;;;;;;;;;5040268;28;20477;-79
2023/07/07 08:37:59;;;;;;;1.97;1.53;;;;;;;;;;5040302;28;20521;-79
2023/07/07 08:40:28;;;;;;;3.93;2.27;;;;;;;;;;5038354;28;20496;-80
2023/07/07 08:42:54;;;;;;;3.17;1.70;;;;;;;;;;5039551;28;20476;-81
2023/07/07 08:45:22;;;;;;;3.53;1.70;;;;;;;;;;5041106;28;20485;-80
2023/07/07 08:47:56;;;;;;;2.43;1.50;;;;;;;;;;5041174;28;20465;-80
2023/07/07 08:50:27;;;;;;;2.93;1.50;;;;;;;;;;5040854;28;20504;-80
2023/07/07 08:52:57;;;;;;;2.80;1.43;;;;;;;;;;5041428;28;20528;-80
2023/07/07 08:55:36;;;;;;;2.60;1.60;;;;;;;;;;5040921;28;20461;-80
2023/07/07 08:58:05;;;;;;;3.27;1.60;;;;;;;;;;5038851;28;20481;-80
2023/07/07 09:00:40;;;;;;;2.37;1.67;;;;;;;;;;5040095;28;20556;-79
2023/07/07 09:03:19;;;;;;;4.90;1.57;;;;;;;;;;5034539;28;20563;-80
2023/07/07 09:05:50;;;;;;;2.27;1.60;;;;;;;;;;5040440;28;20477;-80
2023/07/07 09:08:22;;;;;;;2.37;1.57;;;;;;;;;;5039971;28;20557;-79
2023/07/07 09:10:53;;;;;;;2.30;1.80;;;;;;;;;;5040485;28;20535;-79
2023/07/07 09:13:22;;;;;;;2.90;1.70;;;;;;;;;;5040039;28;20457;-79
2023/07/07 09:15:56;;;;;;;2.77;1.70;;;;;;;;;;5040176;28;20509;-80
2023/07/07 09:18:25;;;;;;;2.73;1.60;;;;;;;;;;5036967;28;20981;-80
2023/07/07 09:20:54;;;;;;;3.40;1.80;;;;;;;;;;5039787;28;21210;-81
2023/07/07 09:23:21;;;;;;;3.47;1.63;;;;;;;;;;5035183;28;20486;-80
2023/07/07 09:25:52;;;;;;;2.20;1.67;;;;;;;;;;5039713;28;20492;-80
2023/07/07 09:28:19;;;;;;;3.10;1.97;;;;;;;;;;5040157;28;20493;-80
2023/07/07 09:30:47;;;;;;;2.77;1.80;;;;;;;;;;5040592;28;20465;-80
2023/07/07 09:33:13;;;;;;;4.20;1.83;;;;;;;;;;5039473;28;20520;-80
2023/07/07 09:35:42;;;;;;;2.17;1.60;;;;;;;;;;5039297;28;20557;-80
2023/07/07 09:38:12;;;;;;;2.70;1.80;;;;;;;;;;5039728;28;20492;-79
2023/07/07 09:40:48;;;;;;;4.20;2.07;;;;;;;;;;5040691;28;20446;-80
2023/07/07 09:43:21;;;;;;;3.73;2.20;;;;;;;;;;5034826;28;20500;-80
2023/07/07 09:45:54;;;;;;;4.70;2.20;;;;;;;;;;5038936;28;20453;-79
2023/07/07 09:48:23;;;;;;;3.73;1.80;;;;;;;;;;5039611;28;20481;-80
2023/07/07 09:50:53;;;;;;;2.60;1.70;;;;;;;;;;5039482;28;20457;-80
2023/07/07 09:53:22;;;;;;;3.43;1.67;;;;;;;;;;5039335;28;20474;-79
2023/07/07 09:55:48;;;;;;;5.77;2.03;;;;;;;;;;5039641;28;21018;-79
2023/07/07 09:58:19;;;;;;;2.73;1.90;;;;;;;;;;5038988;28;20485;-79
2023/07/07 10:00:48;;;;;;;2.37;1.80;;;;;;;;;;5038723;28;20501;-79
2023/07/07 10:03:17;;;;;;;2.60;1.47;;;;;;;;;;5038936;28;20489;-79
2023/07/07 10:05:44;;;;;;;3.10;1.77;;;;;;;;;;5036516;28;20529;-80
2023/07/07 10:08:12;;;;;;;2.70;1.67;;;;;;;;;;5038432;28;20529;-79
2023/07/07 10:10:39;;;;;;;4.93;1.57;;;;;;;;;;5041406;28;21419;-78
2023/07/07 10:13:09;;;;;;;2.40;1.77;;;;;;;;;;5041565;28;20497;-79
2023/07/07 10:15:50;;;;;;;2.50;1.87;;;;;;;;;;5042435;28;20515;-79
2023/07/07 10:18:20;;;;;;;4.27;2.13;;;;;;;;;;5036978;28;20516;-79
2023/07/07 10:20:46;;;;;;;2.60;1.70;;;;;;;;;;5042799;28;20454;-78
2023/07/07 10:23:14;;;;;;;2.27;1.60;;;;;;;;;;5042182;28;21148;-79
2023/07/07 10:25:41;;;;;;;3.20;1.70;;;;;;;;;;5040714;28;20474;-80
2023/07/07 10:28:09;;;;;;;1.73;1.57;;;;;;;;;;5042475;28;20527;-79
2023/07/07 10:30:37;;;;;;;5.23;1.70;;;;;;;;;;5042432;28;20485;-79
2023/07/07 10:33:03;;;;;;;5.10;2.07;;;;;;;;;;5042440;28;20494;-79
2023/07/07 10:35:32;;;;;;;3.50;1.70;;;;;;;;;;5041494;28;20461;-79
2023/07/07 10:38:01;;;;;;;3.40;1.90;;;;;;;;;;5042124;28;20643;-80
2023/07/07 10:40:28;;;;;;;2.70;1.67;;;;;;;;;;5041138;28;20482;-80
2023/07/07 10:42:56;;;;;;;2.13;1.70;;;;;;;;;;5036194;28;20553;-78
2023/07/07 10:45:23;;;;;;;2.47;1.90;;;;;;;;;;5043572;28;20442;-78
2023/07/07 10:47:49;;;;;;;2.50;1.60;;;;;;;;;;5043729;28;20468;-80
2023/07/07 10:50:17;;;;;;;2.70;2.10;;;;;;;;;;5043741;28;20454;-81
2023/07/07 10:52:50;;;;;;;1.83;1.47;;;;;;;;;;5043158;28;20519;-80
2023/07/07 10:55:19;;;;;;;2.43;1.40;;;;;;;;;;5043569;28;21109;-80
2023/07/07 10:57:51;;;;;;;4.30;1.40;;;;;;;;;;5043430;28;20533;-79
2023/07/07 11:00:26;;;;;;;3.67;1.90;;;;;;;;;;5042903;28;21250;-79
2023/07/07 11:03:02;;;;;;;2.60;1.50;;;;;;;;;;5043598;28;20560;-80
2023/07/07 11:05:46;;;;;;;2.50;1.60;;;;;;;;;;5042816;28;20468;-79
2023/07/07 11:08:21;;;;;;;2.60;1.47;;;;;;;;;;5040045;28;20559;-80
2023/07/07 11:10:59;;;;;;;1.80;1.30;;;;;;;;;;5044194;28;20449;-80
2023/07/07 11:13:34;;;;;;;2.93;1.80;;;;;;;;;;5042792;28;20509;-80
2023/07/07 11:16:08;;;;;;;2.10;1.60;;;;;;;;;;5036246;28;20508;-80
2023/07/07 11:18:44;;;;;;;2.30;1.70;;;;;;;;;;5042599;28;20457;-81
2023/07/07 11:21:17;;;;;;;2.43;1.50;;;;;;;;;;5041634;28;20485;-80
2023/07/07 11:24:02;;;;;;;2.20;1.63;;;;;;;;;;5041750;28;20474;-80
2023/07/07 11:26:37;;;;;;;2.70;1.63;;;;;;;;;;5030301;28;20965;-80
2023/07/07 11:29:07;;;;;;;2.60;1.57;;;;;;;;;;5042639;28;20469;-80
2023/07/07 11:31:41;;;;;;;2.27;1.60;;;;;;;;;;5042365;28;20498;-79
2023/07/07 11:34:14;;;;;;;1.93;1.70;;;;;;;;;;5042447;28;20489;-80
2023/07/07 11:36:45;;;;;;;2.33;1.70;;;;;;;;;;5041347;28;20442;-80
2023/07/07 11:39:19;;;;;;;3.87;2.20;;;;;;;;;;5042405;28;21133;-79
2023/07/07 11:41:56;;;;;;;2.67;1.67;;;;;;;;;;5042406;28;20460;-79
2023/07/07 11:44:31;;;;;;;3.40;1.70;;;;;;;;;;5041632;28;20524;-80
2023/07/07 11:47:06;;;;;;;2.00;1.60;;;;;;;;;;5041235;28;21167;-79
2023/07/07 11:49:39;;;;;;;2.23;1.60;;;;;;;;;;5039334;28;20461;-80
2023/07/07 11:52:12;;;;;;;2.73;1.60;;;;;;;;;;5041068;28;20477;-80
2023/07/07 11:54:49;;;;;;;3.30;1.80;;;;;;;;;;5042408;28;20503;-79
2023/07/07 11:57:32;;;;;;;2.10;1.77;;;;;;;;;;5041799;28;20551;-79
2023/07/07 12:00:03;;;;;;;4.03;1.90;;;;;;;;;;5041366;28;20465;-79
2023/07/07 12:02:32;;;;;;;2.37;1.87;;;;;;;;;;5041544;28;20462;-80
2023/07/07 12:05:00;;;;;;;2.77;1.50;;;;;;;;;;5041076;28;20580;-81
2023/07/07 12:07:30;;;;;;;2.70;1.70;;;;;;;;;;5040783;28;20493;-80
2023/07/07 12:10:00;;;;;;;2.20;1.60;;;;;;;;;;5041454;28;20812;-80
2023/07/07 12:12:36;;;;;;;2.60;1.80;;;;;;;;;;5037935;28;20796;-80
2023/07/07 12:15:06;;;;;;;2.53;1.70;;;;;;;;;;5047923;28;20453;-80
2023/07/07 12:17:36;;;;;;;4.00;1.87;;;;;;;;;;5041148;28;20446;-80
2023/07/07 12:20:04;;;;;;;2.30;1.63;;;;;;;;;;5040802;28;20552;-80
2023/07/07 12:22:35;;;;;;;2.47;2.00;;;;;;;;;;5041202;28;20468;-80
2023/07/07 12:25:04;;;;;;;3.50;1.87;;;;;;;;;;5035913;28;20500;-80
2023/07/07 12:27:34;;;;;;;2.97;1.90;;;;;;;;;;5040211;28;20462;-80
2023/07/07 12:30:01;;;;;;;3.10;1.80;;;;;;;;;;5040823;28;20573;-80
2023/07/07 12:32:27;;;;;;;3.27;2.07;;;;;;;;;;5041844;28;20492;-80
2023/07/07 12:35:02;;;;;;;3.20;1.87;;;;;;;;;;5039687;28;20458;-80
2023/07/07 12:37:29;;;;;;;3.10;2.27;;;;;;;;;;5040920;28;20517;-80
2023/07/07 12:39:57;;;;;;;2.20;1.83;;;;;;;;;;5041208;28;20486;-81
2023/07/07 12:42:24;;;;;;;6.00;2.03;;;;;;;;;;5036645;28;20457;-80
2023/07/07 12:44:52;;;;;;;2.27;1.60;;;;;;;;;;5040270;28;20512;-79
2023/07/07 12:47:30;;;;;;;3.20;1.90;;;;;;;;;;5041323;28;20442;-80
2023/07/07 12:49:58;;;;;;;2.83;2.00;;;;;;;;;;5028093;28;20481;-80
2023/07/07 12:52:25;;;;;;;10.87;2.53;;;;;;;;;;5031403;28;20486;-81
2023/07/07 12:54:52;;;;;;;4.90;1.83;;;;;;;;;;5035900;28;20484;-78
2023/07/07 12:57:22;;;;;;;2.40;1.90;;;;;;;;;;5027470;28;20542;-78
2023/07/07 12:59:49;;;;;;;7.37;2.20;;;;;;;;;;5039389;28;20463;-77
2023/07/07 13:02:19;;;;;;;4.93;1.70;;;;;;;;;;5043917;28;20493;-78
2023/07/07 13:04:50;;;;;;;3.40;2.00;;;;;;;;;;5039318;28;20493;-77
2023/07/07 13:07:20;;;;;;;3.53;1.80;;;;;;;;;;5039421;28;20481;-77
2023/07/07 13:09:50;;;;;;;3.63;2.27;;;;;;;;;;5040125;28;20486;-78
2023/07/07 13:12:40;;;;;;;3.40;2.20;;;;;;;;;;5035013;28;20481;-77
2023/07/07 13:15:13;;;;;;;3.40;1.70;;;;;;;;;;5037919;28;20477;-77
2023/07/07 13:17:41;;;;;;;2.47;1.50;;;;;;;;;;5049913;28;20648;-76
2023/07/07 13:20:11;;;;;;;4.93;2.10;;;;;;;;;;5039579;28;20501;-77
2023/07/07 13:22:38;;;;;;;2.80;1.80;;;;;;;;;;5038094;28;20526;-76
2023/07/07 13:25:06;;;;;;;3.13;2.00;;;;;;;;;;5035692;28;20521;-77
2023/07/07 13:27:33;;;;;;;5.43;2.20;;;;;;;;;;5039524;28;20470;-77
2023/07/07 13:30:07;;;;;;;3.97;1.97;;;;;;;;;;5037274;28;20592;-77
2023/07/07 13:32:34;;;;;;;2.60;1.77;;;;;;;;;;5039539;28;20441;-79
2023/07/07 13:35:03;;;;;;;2.70;1.80;;;;;;;;;;5037162;28;20488;-78
2023/07/07 13:37:31;;;;;;;4.83;2.30;;;;;;;;;;5037823;28;20454;-77
2023/07/07 13:39:57;;;;;;;2.50;2.03;;;;;;;;;;5039156;28;20600;-77
2023/07/07 13:42:26;;;;;;;2.70;1.67;;;;;;;;;;5035787;28;20541;-77
2023/07/07 13:44:59;;;;;;;3.33;2.20;;;;;;;;;;5036602;28;20485;-79
2023/07/07 13:47:26;;;;;;;3.50;2.00;;;;;;;;;;5035396;28;20457;-79
2023/07/07 13:49:57;;;;;;;3.37;2.23;;;;;;;;;;5042598;28;20504;-80
2023/07/07 13:52:26;;;;;;;4.87;2.00;;;;;;;;;;5041811;28;20465;-77
2023/07/07 13:54:54;;;;;;;3.80;2.33;;;;;;;;;;5043238;28;20876;-79
2023/07/07 13:57:23;;;;;;;2.70;2.03;;;;;;;;;;5042747;28;20468;-79
2023/07/07 13:59:50;;;;;;;3.10;2.07;;;;;;;;;;5042433;28;20500;-80
2023/07/07 14:02:17;;;;;;;2.53;1.90;;;;;;;;;;5038121;28;20548;-78
2023/07/07 14:04:45;;;;;;;2.90;1.60;;;;;;;;;;5039900;28;20528;-78
2023/07/07 14:07:14;;;;;;;3.03;2.17;;;;;;;;;;5034736;28;20608;-78
2023/07/07 14:09:44;;;;;;;2.97;2.00;;;;;;;;;;5039811;28;20493;-78
2023/07/07 14:12:11;;;;;;;3.40;2.30;;;;;;;;;;5038526;28;20456;-78
2023/07/07 14:14:38;;;;;;;5.70;2.67;;;;;;;;;;5036611;28;20457;-78
2023/07/07 14:17:07;;;;;;;3.93;2.20;;;;;;;;;;5041858;28;20829;-79
2023/07/07 14:19:35;;;;;;;4.90;2.43;;;;;;;;;;5040179;28;20489;-76
2023/07/07 14:22:02;;;;;;;3.47;1.93;;;;;;;;;;5033323;28;21064;-76
2023/07/07 14:24:29;;;;;;;3.33;2.20;;;;;;;;;;5037097;28;20533;-76
2023/07/07 14:26:57;;;;;;;2.30;1.93;;;;;;;;;;5041193;28;20478;-76
2023/07/07 14:29:27;;;;;;;2.33;1.80;;;;;;;;;;5037501;28;20489;-75
2023/07/07 14:31:55;;;;;;;4.50;2.17;;;;;;;;;;5046165;28;20513;-77
2023/07/07 14:34:21;;;;;;;2.57;1.80;;;;;;;;;;5041017;28;20490;-76
2023/07/07 14:36:48;;;;;;;2.93;2.00;;;;;;;;;;5041737;28;20533;-77
2023/07/07 14:39:22;;;;;;;3.50;2.07;;;;;;;;;;5042075;28;20465;-77
2023/07/07 14:41:51;;;;;;;3.27;1.83;;;;;;;;;;5030759;28;20942;-77
2023/07/07 14:44:40;;;;;;;2.60;2.23;;;;;;;;;;5035693;28;20485;-77
2023/07/07 14:47:07;;;;;;;3.90;2.33;;;;;;;;;;5041661;28;20508;-78
2023/07/07 14:49:33;;;;;;;3.03;2.20;;;;;;;;;;5040077;28;20457;-77
2023/07/07 14:52:00;;;;;;;3.07;2.10;;;;;;;;;;5041125;28;20508;-77